Time;durP1;ratioP1;P1;durP2;ratioP2;P2;SDS_P1;SDS_P2;PMS_P1;PMS_P2;Temp;Humidity;BMP_temperature;BMP_pressure;BME280_temperature;BME280_humidity;BME280_pressure;Samples;Min_cycle;Max_cycle;Signal;HPM_P1;HPM_P2
2022/07/26 00:00:49;;;;;;;9.10;8.02;;;26.80;1.00;;;;;;5105590;28;20039;-59
2022/07/26 00:03:15;;;;;;;9.35;8.13;;;26.70;1.00;;;;;;5073091;28;20118;-59
2022/07/26 00:05:41;;;;;;;8.85;7.57;;;26.60;1.00;;;;;;5110756;28;20176;-59
2022/07/26 00:08:10;;;;;;;8.50;7.70;;;26.60;1.00;;;;;;5093176;28;20078;-59
2022/07/26 00:10:40;;;;;;;9.45;7.47;;;26.50;1.00;;;;;;5107502;28;20049;-60
2022/07/26 00:13:06;;;;;;;8.52;7.43;;;26.50;1.00;;;;;;5106211;28;20333;-59
2022/07/26 00:15:32;;;;;;;9.63;7.53;;;26.40;1.00;;;;;;5108263;28;20028;-60
2022/07/26 00:17:58;;;;;;;8.90;7.03;;;26.50;1.00;;;;;;5085532;28;20032;-59
2022/07/26 00:20:23;;;;;;;7.85;7.13;;;26.40;1.00;;;;;;5108646;28;20492;-59
2022/07/26 00:22:49;;;;;;;12.45;7.40;;;26.40;1.00;;;;;;5101774;28;20415;-59
2022/07/26 00:25:14;;;;;;;7.88;6.93;;;26.30;1.00;;;;;;5111248;28;20050;-59
2022/07/26 00:27:40;;;;;;;7.85;7.10;;;26.50;1.00;;;;;;5108777;28;20038;-59
2022/07/26 00:30:08;;;;;;;8.05;7.18;;;26.40;1.00;;;;;;5112383;28;20023;-59
2022/07/26 00:32:35;;;;;;;12.40;7.57;;;26.60;1.00;;;;;;5107642;28;20114;-60
2022/07/26 00:35:01;;;;;;;8.05;6.22;;;26.60;1.00;;;;;;5112210;28;20019;-60
2022/07/26 00:37:26;;;;;;;8.23;6.68;;;26.40;1.00;;;;;;5110979;28;20541;-59
2022/07/26 00:39:52;;;;;;;7.63;6.80;;;26.30;1.00;;;;;;5093792;28;20476;-59
2022/07/26 00:42:18;;;;;;;7.20;6.53;;;26.50;1.00;;;;;;5101370;28;20058;-59
2022/07/26 00:44:45;;;;;;;7.90;6.05;;;26.50;1.00;;;;;;5111155;28;20019;-59
2022/07/26 00:47:10;;;;;;;7.13;6.43;;;26.40;1.00;;;;;;5111161;28;20023;-60
2022/07/26 00:49:36;;;;;;;8.13;5.63;;;26.50;1.00;;;;;;5093355;28;20038;-60
2022/07/26 00:52:04;;;;;;;8.57;5.78;;;26.50;1.00;;;;;;5106560;28;20495;-60
2022/07/26 00:54:30;;;;;;;8.63;6.00;;;26.70;1.00;;;;;;5111842;28;20031;-60
2022/07/26 00:56:56;;;;;;;6.28;5.68;;;26.60;1.00;;;;;;5111200;28;20032;-60
2022/07/26 00:59:21;;;;;;;6.47;5.85;;;26.60;1.00;;;;;;5112096;28;20023;-60
2022/07/26 01:01:47;;;;;;;6.63;6.00;;;26.60;1.00;;;;;;5106380;28;20031;-60
2022/07/26 01:04:12;;;;;;;6.75;6.05;;;26.60;1.00;;;;;;5111565;28;20031;-60
2022/07/26 01:06:38;;;;;;;6.40;5.75;;;26.60;1.00;;;;;;5108828;28;20024;-60
2022/07/26 01:09:04;;;;;;;8.65;5.80;;;26.50;1.00;;;;;;5108266;28;20477;-60
2022/07/26 01:11:30;;;;;;;6.65;5.97;;;26.50;1.00;;;;;;5110248;28;20055;-60
2022/07/26 01:13:56;;;;;;;6.18;5.45;;;26.60;1.00;;;;;;5091338;28;20052;-60
2022/07/26 01:16:23;;;;;;;6.15;5.55;;;26.50;1.00;;;;;;5105559;28;20051;-60
2022/07/26 01:18:48;;;;;;;6.20;5.60;;;26.40;1.00;;;;;;5105343;28;20020;-60
2022/07/26 01:21:14;;;;;;;9.80;6.45;;;26.60;1.00;;;;;;5096538;28;20114;-60
2022/07/26 01:23:41;;;;;;;7.68;6.10;;;26.70;1.00;;;;;;5105346;28;20105;-60
2022/07/26 01:26:07;;;;;;;8.85;6.13;;;26.70;1.00;;;;;;5093437;28;20023;-60
2022/07/26 01:28:39;;;;;;;7.20;6.15;;;26.70;1.00;;;;;;5092534;28;20031;-60
2022/07/26 01:31:06;;;;;;;6.93;5.82;;;26.50;1.00;;;;;;5092142;28;20016;-60
2022/07/26 01:33:33;;;;;;;8.07;5.78;;;26.60;1.00;;;;;;5099655;28;20562;-60
2022/07/26 01:35:59;;;;;;;6.95;6.18;;;26.70;1.00;;;;;;5103776;28;20024;-60
2022/07/26 01:38:26;;;;;;;8.57;6.25;;;26.50;1.00;;;;;;5114226;28;20023;-60
2022/07/26 01:40:52;;;;;;;7.75;6.22;;;26.60;1.00;;;;;;5112056;28;20055;-60
2022/07/26 01:43:17;;;;;;;8.63;5.85;;;26.60;1.00;;;;;;5114166;28;20480;-60
2022/07/26 01:45:43;;;;;;;7.53;6.00;;;26.70;1.00;;;;;;5112251;28;20124;-60
2022/07/26 01:48:09;;;;;;;6.45;5.63;;;26.50;1.00;;;;;;5112994;28;20027;-60
2022/07/26 01:50:36;;;;;;;6.53;5.72;;;26.30;1.00;;;;;;5113593;28;20110;-60
2022/07/26 01:53:01;;;;;;;6.75;5.47;;;26.40;1.00;;;;;;5100447;28;20152;-60
2022/07/26 01:55:27;;;;;;;9.00;7.18;;;26.40;1.00;;;;;;5095768;28;20546;-60
2022/07/26 01:57:53;;;;;;;7.13;6.43;;;26.40;1.00;;;;;;5113450;28;20107;-60
2022/07/26 02:00:19;;;;;;;7.10;5.88;;;26.10;1.00;;;;;;5114213;28;20055;-60
2022/07/26 02:02:45;;;;;;;8.48;5.82;;;26.20;1.00;;;;;;5103820;28;20066;-60
2022/07/26 02:05:11;;;;;;;6.82;6.05;;;26.20;1.00;;;;;;5100154;28;20080;-60
2022/07/26 02:07:44;;;;;;;9.18;6.03;;;26.10;1.00;;;;;;5094496;28;20039;-60
2022/07/26 02:10:12;;;;;;;9.55;6.00;;;26.10;1.00;;;;;;5107163;28;20033;-60
2022/07/26 02:12:37;;;;;;;9.15;6.30;;;26.00;1.00;;;;;;5100700;28;20089;-60
2022/07/26 02:15:04;;;;;;;8.98;6.65;;;25.90;1.00;;;;;;5106894;28;20123;-60
2022/07/26 02:17:30;;;;;;;9.23;6.40;;;25.80;1.00;;;;;;5101356;28;20093;-60
2022/07/26 02:19:56;;;;;;;7.03;6.32;;;25.80;1.00;;;;;;5111532;28;20433;-60
2022/07/26 02:22:21;;;;;;;7.57;5.75;;;25.80;1.00;;;;;;5100677;28;20028;-60
2022/07/26 02:24:48;;;;;;;8.32;6.63;;;25.90;1.00;;;;;;5096003;28;20038;-60
2022/07/26 02:27:14;;;;;;;8.85;6.90;;;25.80;1.00;;;;;;5113559;28;20031;-60
2022/07/26 02:29:40;;;;;;;7.47;6.80;;;25.90;1.00;;;;;;5113759;28;20037;-60
2022/07/26 02:32:06;;;;;;;8.48;7.35;;;25.90;1.00;;;;;;5103200;28;20142;-60
2022/07/26 02:34:32;;;;;;;8.27;7.47;;;25.80;1.00;;;;;;5111077;28;20043;-60
2022/07/26 02:36:58;;;;;;;9.00;7.72;;;25.80;1.00;;;;;;5113415;28;20035;-60
2022/07/26 02:39:27;;;;;;;9.82;7.65;;;25.90;1.00;;;;;;5113532;28;20061;-60
2022/07/26 02:41:55;;;;;;;10.38;7.95;;;25.80;1.00;;;;;;5104758;28;20128;-60
2022/07/26 02:44:21;;;;;;;9.73;8.05;;;25.80;1.00;;;;;;5105534;28;20028;-60
2022/07/26 02:46:47;;;;;;;11.48;8.00;;;25.70;1.00;;;;;;5105809;28;20039;-60
2022/07/26 02:49:12;;;;;;;9.25;8.35;;;25.80;1.00;;;;;;5107326;28;20114;-59
2022/07/26 02:51:38;;;;;;;10.00;7.78;;;25.80;1.00;;;;;;5093586;28;20330;-60
2022/07/26 02:54:03;;;;;;;10.60;7.88;;;25.80;1.00;;;;;;5107989;28;20034;-60
2022/07/26 02:56:29;;;;;;;10.27;8.20;;;25.80;1.00;;;;;;5094542;28;20248;-60
2022/07/26 02:58:55;;;;;;;9.32;6.93;;;25.80;1.00;;;;;;5086792;28;20028;-60
2022/07/26 03:01:20;;;;;;;8.68;7.45;;;26.00;1.00;;;;;;5109535;28;20040;-60
2022/07/26 03:03:46;;;;;;;9.98;7.25;;;26.00;1.00;;;;;;5103076;28;20045;-60
2022/07/26 03:06:12;;;;;;;8.65;7.38;;;26.00;1.00;;;;;;5112750;28;20076;-60
2022/07/26 03:08:37;;;;;;;7.78;7.00;;;26.00;1.00;;;;;;5112778;28;20488;-60
2022/07/26 03:11:04;;;;;;;10.55;6.95;;;26.10;1.00;;;;;;5112644;28;20020;-60
2022/07/26 03:13:29;;;;;;;11.50;7.47;;;25.80;1.00;;;;;;5112866;28;20319;-59
2022/07/26 03:15:55;;;;;;;7.88;6.97;;;25.90;1.00;;;;;;5113486;28;20089;-60
2022/07/26 03:18:20;;;;;;;9.18;6.88;;;25.90;1.00;;;;;;5111371;28;20028;-59
2022/07/26 03:20:46;;;;;;;8.02;6.90;;;26.00;1.00;;;;;;5113312;28;20099;-60
2022/07/26 03:23:12;;;;;;;7.60;6.75;;;25.90;1.00;;;;;;5112239;28;20032;-59
2022/07/26 03:25:38;;;;;;;8.43;6.85;;;25.90;1.00;;;;;;5113144;28;20127;-60
2022/07/26 03:28:04;;;;;;;7.50;6.80;;;25.90;1.00;;;;;;5110069;28;20039;-60
2022/07/26 03:30:29;;;;;;;10.00;7.25;;;26.00;1.00;;;;;;5113152;28;20026;-60
2022/07/26 03:32:55;;;;;;;10.18;7.20;;;25.90;1.00;;;;;;5112287;28;20088;-59
2022/07/26 03:35:21;;;;;;;9.55;7.28;;;26.00;1.00;;;;;;5112049;28;20457;-60
2022/07/26 03:37:46;;;;;;;11.35;6.80;;;26.00;1.00;;;;;;5108642;28;20134;-60
2022/07/26 03:40:16;;;;;;;8.18;7.30;;;25.90;1.00;;;;;;5112903;28;20020;-60
2022/07/26 03:42:41;;;;;;;9.55;7.47;;;25.90;1.00;;;;;;5107821;28;20039;-60
2022/07/26 03:45:07;;;;;;;9.13;7.55;;;25.90;1.00;;;;;;5102632;28;20027;-60
2022/07/26 03:47:33;;;;;;;7.68;6.38;;;25.90;1.00;;;;;;5112019;28;20050;-60
2022/07/26 03:49:58;;;;;;;9.00;7.00;;;25.80;1.00;;;;;;5113133;28;20024;-59
2022/07/26 03:52:24;;;;;;;7.65;6.95;;;25.80;1.00;;;;;;5102227;28;20028;-60
2022/07/26 03:54:50;;;;;;;10.15;7.30;;;25.90;1.00;;;;;;5112120;28;20035;-60
2022/07/26 03:57:15;;;;;;;9.85;7.60;;;25.90;1.00;;;;;;5104505;28;20098;-60
2022/07/26 03:59:41;;;;;;;8.50;7.55;;;26.00;1.00;;;;;;5112466;28;20023;-60
2022/07/26 04:02:06;;;;;;;10.65;7.97;;;25.90;1.00;;;;;;5104881;28;20063;-60
2022/07/26 04:04:32;;;;;;;10.98;8.15;;;25.80;1.00;;;;;;5108571;28;20426;-60
2022/07/26 04:06:57;;;;;;;10.77;7.90;;;25.90;1.00;;;;;;5110032;28;20039;-60
2022/07/26 04:09:23;;;;;;;11.10;8.15;;;26.10;1.00;;;;;;5110947;28;20039;-60
2022/07/26 04:11:48;;;;;;;11.32;8.10;;;26.00;1.00;;;;;;5090758;28;20358;-60
2022/07/26 04:14:14;;;;;;;8.35;7.45;;;26.00;1.00;;;;;;5107115;28;20059;-60
2022/07/26 04:16:40;;;;;;;9.48;7.78;;;25.80;1.00;;;;;;5110815;28;20035;-60
2022/07/26 04:19:05;;;;;;;12.05;8.10;;;25.90;1.00;;;;;;5112418;28;20027;-60
2022/07/26 04:21:31;;;;;;;11.20;7.68;;;26.00;1.00;;;;;;5109611;28;20020;-60
2022/07/26 04:23:57;;;;;;;8.60;7.32;;;26.00;1.00;;;;;;5106691;28;20164;-60
2022/07/26 04:26:23;;;;;;;8.38;7.50;;;26.10;1.00;;;;;;5111685;28;20472;-60
2022/07/26 04:28:49;;;;;;;9.75;7.85;;;26.00;1.00;;;;;;5112321;28;20031;-60
2022/07/26 04:31:14;;;;;;;9.77;7.93;;;25.90;1.00;;;;;;5111113;28;20131;-60
2022/07/26 04:33:40;;;;;;;9.60;7.25;;;25.90;1.00;;;;;;5102858;28;20097;-60
2022/07/26 04:36:06;;;;;;;9.02;8.10;;;25.90;1.00;;;;;;5112155;28;20099;-60
2022/07/26 04:38:31;;;;;;;7.68;6.90;;;25.90;1.00;;;;;;5080478;28;20047;-60
2022/07/26 04:40:57;;;;;;;13.85;8.50;;;26.10;1.00;;;;;;5095894;28;20487;-60
2022/07/26 04:43:23;;;;;;;10.20;7.15;;;26.20;1.00;;;;;;5091500;28;20069;-60
2022/07/26 04:45:49;;;;;;;9.10;7.18;;;26.20;1.00;;;;;;5097697;28;20374;-60
2022/07/26 04:48:15;;;;;;;8.20;6.85;;;26.10;1.00;;;;;;5097786;28;20043;-60
2022/07/26 04:50:41;;;;;;;9.15;8.10;;;26.10;1.00;;;;;;5098593;28;20071;-60
2022/07/26 04:53:09;;;;;;;8.27;6.78;;;26.10;1.00;;;;;;5111344;28;20123;-60
2022/07/26 04:55:35;;;;;;;8.52;6.82;;;26.10;1.00;;;;;;5108208;28;20020;-60
2022/07/26 04:58:01;;;;;;;8.68;6.78;;;26.10;1.00;;;;;;5101938;28;20024;-60
2022/07/26 05:00:27;;;;;;;8.70;6.90;;;26.10;1.00;;;;;;5111798;28;20084;-61
2022/07/26 05:02:55;;;;;;;10.70;8.00;;;26.10;1.00;;;;;;5108149;28;20032;-60
2022/07/26 05:05:22;;;;;;;10.02;7.78;;;26.00;1.00;;;;;;5111214;28;20496;-60
2022/07/26 05:07:50;;;;;;;11.05;8.45;;;25.90;1.00;;;;;;5114780;28;20089;-60
2022/07/26 05:10:17;;;;;;;10.40;7.75;;;25.90;1.00;;;;;;5115139;28;20027;-60
2022/07/26 05:12:43;;;;;;;10.90;8.18;;;26.00;1.00;;;;;;5096371;28;20028;-60
2022/07/26 05:15:09;;;;;;;9.95;7.70;;;26.00;1.00;;;;;;5115867;28;20028;-60
2022/07/26 05:17:38;;;;;;;9.20;8.07;;;26.00;1.00;;;;;;5114590;28;20514;-59
2022/07/26 05:20:06;;;;;;;8.55;7.07;;;26.10;1.00;;;;;;5115435;28;20068;-59
2022/07/26 05:22:32;;;;;;;9.80;7.80;;;26.00;1.00;;;;;;5114106;28;20016;-60
2022/07/26 05:24:58;;;;;;;10.25;8.15;;;26.10;1.00;;;;;;5115167;28;20035;-60
2022/07/26 05:27:23;;;;;;;12.80;9.15;;;25.90;1.00;;;;;;5114805;28;20050;-61
2022/07/26 05:29:49;;;;;;;10.00;8.43;;;26.00;1.00;;;;;;5115591;28;20024;-60
2022/07/26 05:32:15;;;;;;;11.00;9.00;;;26.10;1.00;;;;;;5106333;28;20540;-60
2022/07/26 05:34:41;;;;;;;10.43;8.93;;;26.10;1.00;;;;;;5096990;28;20020;-60
2022/07/26 05:37:07;;;;;;;10.25;8.90;;;26.10;1.00;;;;;;5114760;28;20050;-60
2022/07/26 05:39:32;;;;;;;11.52;9.55;;;26.10;1.00;;;;;;5096504;28;20040;-60
2022/07/26 05:41:58;;;;;;;9.65;8.52;;;26.10;1.00;;;;;;5082577;28;20036;-60
2022/07/26 05:44:23;;;;;;;9.70;8.55;;;26.20;1.00;;;;;;5115125;28;20035;-60
2022/07/26 05:46:49;;;;;;;10.65;9.48;;;26.20;1.00;;;;;;5105632;28;20027;-60
2022/07/26 05:49:15;;;;;;;10.50;8.52;;;26.20;1.00;;;;;;5095779;28;20027;-60
2022/07/26 05:51:41;;;;;;;10.55;9.07;;;26.20;1.00;;;;;;5114858;28;20106;-60
2022/07/26 05:54:06;;;;;;;10.48;9.48;;;26.40;1.00;;;;;;5077101;28;20525;-61
2022/07/26 05:56:32;;;;;;;12.40;9.13;;;26.30;1.00;;;;;;5095339;28;20114;-60
2022/07/26 05:58:57;;;;;;;13.93;9.40;;;26.40;1.00;;;;;;5096159;28;20469;-60
2022/07/26 06:01:23;;;;;;;12.27;8.88;;;26.40;1.00;;;;;;5110234;28;20031;-60
2022/07/26 06:03:48;;;;;;;10.23;8.93;;;26.40;1.00;;;;;;5110680;28;20025;-60
2022/07/26 06:06:14;;;;;;;11.63;9.40;;;26.40;1.00;;;;;;5114857;28;20544;-60
2022/07/26 06:08:40;;;;;;;10.18;8.02;;;26.40;1.00;;;;;;5109071;28;20038;-61
2022/07/26 06:11:05;;;;;;;9.10;8.07;;;26.40;1.00;;;;;;5114664;28;20469;-61
2022/07/26 06:13:31;;;;;;;15.07;8.45;;;26.40;1.00;;;;;;5113560;28;20508;-61
2022/07/26 06:15:57;;;;;;;9.15;7.88;;;26.20;1.00;;;;;;5114580;28;20036;-60
2022/07/26 06:18:22;;;;;;;10.80;8.35;;;26.40;1.00;;;;;;5113121;28;20030;-61
2022/07/26 06:20:49;;;;;;;8.95;8.05;;;26.40;1.00;;;;;;5112791;28;20019;-61
2022/07/26 06:23:15;;;;;;;11.15;9.57;;;26.40;1.00;;;;;;5113377;28;20054;-60
2022/07/26 06:25:41;;;;;;;9.98;8.98;;;26.40;1.00;;;;;;5113678;28;20055;-59
2022/07/26 06:28:09;;;;;;;11.35;9.00;;;26.40;1.00;;;;;;5111411;28;20039;-60
2022/07/26 06:30:38;;;;;;;10.73;9.32;;;26.50;1.00;;;;;;5081764;28;20024;-60
2022/07/26 06:33:05;;;;;;;13.65;9.68;;;26.60;1.00;;;;;;5105356;28;20023;-60
2022/07/26 06:35:31;;;;;;;11.48;9.40;;;26.70;1.00;;;;;;5093361;28;20070;-61
2022/07/26 06:37:58;;;;;;;10.75;9.65;;;26.70;1.00;;;;;;5113194;28;20020;-61
2022/07/26 06:40:24;;;;;;;10.10;9.10;;;26.70;1.00;;;;;;5113899;28;20031;-60
2022/07/26 06:42:50;;;;;;;12.15;9.00;;;26.80;1.00;;;;;;5111482;28;20043;-61
2022/07/26 06:45:16;;;;;;;9.75;8.80;;;26.80;1.00;;;;;;5113876;28;20488;-61
2022/07/26 06:47:41;;;;;;;11.32;9.45;;;26.80;1.00;;;;;;5107711;28;20043;-60
2022/07/26 06:50:07;;;;;;;11.48;8.93;;;26.80;1.00;;;;;;5106965;28;20565;-61
2022/07/26 06:52:33;;;;;;;12.13;8.13;;;26.90;1.00;;;;;;5108737;28;20058;-61
2022/07/26 06:55:00;;;;;;;9.85;7.93;;;26.90;1.00;;;;;;5086820;28;20055;-60
2022/07/26 06:57:26;;;;;;;9.90;8.32;;;26.90;1.00;;;;;;5112955;28;20028;-60
2022/07/26 06:59:52;;;;;;;11.80;8.80;;;27.00;1.00;;;;;;5106493;28;20042;-60
2022/07/26 07:02:18;;;;;;;11.77;9.27;;;27.00;1.00;;;;;;5106439;28;20084;-60
2022/07/26 07:04:43;;;;;;;11.10;8.50;;;27.00;1.00;;;;;;5111176;28;20055;-60
2022/07/26 07:07:09;;;;;;;13.38;9.07;;;27.10;1.00;;;;;;5112112;28;20020;-60
2022/07/26 07:09:35;;;;;;;11.77;9.15;;;27.10;1.00;;;;;;5110936;28;20020;-60
2022/07/26 07:12:02;;;;;;;9.95;8.27;;;27.10;1.00;;;;;;5113572;28;20419;-60
2022/07/26 07:14:28;;;;;;;14.10;9.10;;;27.20;1.00;;;;;;5109427;28;20473;-60
2022/07/26 07:16:55;;;;;;;15.18;10.18;;;27.20;1.00;;;;;;5109187;28;20314;-60
2022/07/26 07:19:21;;;;;;;11.27;9.30;;;27.20;1.00;;;;;;5108106;28;20027;-58
2022/07/26 07:21:47;;;;;;;11.48;10.38;;;27.20;1.00;;;;;;5113127;28;20027;-58
2022/07/26 07:24:12;;;;;;;10.57;9.50;;;27.30;1.00;;;;;;5112320;28;20460;-59
2022/07/26 07:26:38;;;;;;;10.77;9.43;;;27.40;1.00;;;;;;5111188;28;20201;-60
2022/07/26 07:29:04;;;;;;;11.23;9.90;;;27.40;1.00;;;;;;5093528;28;20043;-60
2022/07/26 07:31:29;;;;;;;11.70;9.57;;;27.30;1.00;;;;;;5086428;28;20028;-59
2022/07/26 07:33:55;;;;;;;10.00;9.10;;;27.40;1.00;;;;;;5112198;28;20031;-60
2022/07/26 07:36:21;;;;;;;9.30;8.40;;;27.40;1.00;;;;;;5109632;28;20087;-51
2022/07/26 07:38:47;;;;;;;9.40;8.55;;;27.50;1.00;;;;;;5104304;28;20031;-56
2022/07/26 07:41:13;;;;;;;10.93;8.73;;;27.50;1.00;;;;;;5112709;28;20054;-54
2022/07/26 07:43:38;;;;;;;13.43;8.55;;;27.60;1.00;;;;;;5110765;28;20024;-56
2022/07/26 07:46:04;;;;;;;9.40;8.50;;;27.60;1.00;;;;;;5112705;28;20133;-58
2022/07/26 07:48:30;;;;;;;10.48;9.02;;;27.70;1.00;;;;;;5093627;28;20115;-57
2022/07/26 07:50:56;;;;;;;10.18;8.50;;;27.60;1.00;;;;;;5111332;28;20059;-56
2022/07/26 07:53:21;;;;;;;9.75;8.75;;;27.70;1.00;;;;;;5096669;28;20082;-51
2022/07/26 07:55:47;;;;;;;10.35;8.40;;;27.70;1.00;;;;;;5111988;28;20084;-51
2022/07/26 07:58:14;;;;;;;9.40;8.48;;;27.70;1.00;;;;;;5108462;28;20023;-53
2022/07/26 08:00:40;;;;;;;10.10;9.10;;;27.80;1.00;;;;;;5102723;28;20112;-59
2022/07/26 08:09:59;;;;;;;9.23;8.43;;;27.80;1.00;;;;;;5107808;28;20050;-54
2022/07/26 08:12:25;;;;;;;11.15;8.70;;;27.90;1.00;;;;;;5110562;28;20106;-56
2022/07/26 08:14:50;;;;;;;9.07;8.18;;;28.10;1.00;;;;;;5110267;28;20063;-56
2022/07/26 08:17:16;;;;;;;11.02;9.93;;;28.20;1.00;;;;;;5112343;28;20023;-58
2022/07/26 08:19:42;;;;;;;9.70;8.80;;;28.10;1.00;;;;;;5111385;28;20024;-56
2022/07/26 08:22:07;;;;;;;9.80;8.95;;;28.20;1.00;;;;;;5111508;28;20074;-56
2022/07/26 08:24:33;;;;;;;11.32;8.23;;;28.30;1.00;;;;;;5091437;28;20028;-55
2022/07/26 08:26:59;;;;;;;10.50;9.35;;;28.30;1.00;;;;;;5103818;28;20485;-61
2022/07/26 08:29:25;;;;;;;9.68;8.57;;;28.30;1.00;;;;;;5110122;28;20034;-56
2022/07/26 08:31:51;;;;;;;9.50;8.50;;;28.40;1.00;;;;;;5110884;28;20546;-53
2022/07/26 08:34:17;;;;;;;10.55;9.45;;;28.40;1.00;;;;;;5111064;28;20020;-54
2022/07/26 08:36:44;;;;;;;10.50;9.38;;;28.40;1.00;;;;;;5111160;28;20034;-59
2022/07/26 08:39:09;;;;;;;11.40;9.27;;;28.40;1.00;;;;;;5101074;28;20024;-60
2022/07/26 08:41:35;;;;;;;10.95;9.85;;;28.60;1.00;;;;;;5114596;28;20059;-48
2022/07/26 08:44:09;;;;;;;10.57;9.48;;;28.70;1.00;;;;;;5113520;28;20031;-59
2022/07/26 08:46:40;;;;;;;9.95;9.02;;;28.70;1.00;;;;;;5102798;28;20178;-60
2022/07/26 08:49:09;;;;;;;11.80;9.23;;;28.60;1.00;;;;;;5116083;28;20040;-54
2022/07/26 08:51:39;;;;;;;10.30;9.27;;;28.70;1.00;;;;;;5097003;28;20020;-58
2022/07/26 08:54:04;;;;;;;11.60;10.43;;;28.70;1.00;;;;;;5104700;28;20068;-63
2022/07/26 08:56:31;;;;;;;10.65;9.50;;;28.60;1.00;;;;;;5115610;28;20107;-63
2022/07/26 08:58:56;;;;;;;10.73;9.70;;;28.80;1.00;;;;;;5116098;28;20020;-63
2022/07/26 09:01:22;;;;;;;11.18;10.07;;;28.80;1.00;;;;;;5108563;28;20035;-60
2022/07/26 09:03:48;;;;;;;10.75;9.70;;;28.90;1.00;;;;;;5113090;28;20032;-48
2022/07/26 09:06:16;;;;;;;11.18;10.18;;;28.90;1.00;;;;;;5109573;28;20026;-62
2022/07/26 09:08:44;;;;;;;11.13;10.02;;;29.00;1.00;;;;;;5096755;28;20492;-60
2022/07/26 09:11:24;;;;;;;11.45;10.25;;;29.00;1.00;;;;;;5107656;28;20480;-59
2022/07/26 09:13:52;;;;;;;9.98;9.07;;;29.20;1.00;;;;;;5114840;28;20427;-59
2022/07/26 09:16:18;;;;;;;11.15;10.05;;;29.10;1.00;;;;;;5113259;28;20345;-63
2022/07/26 09:18:43;;;;;;;12.52;11.30;;;29.20;1.00;;;;;;5115639;28;20027;-59
2022/07/26 09:21:34;;;;;;;11.85;10.85;;;29.30;1.00;;;;;;5105365;28;20475;-59
2022/07/26 09:24:00;;;;;;;11.35;9.82;;;29.30;1.00;;;;;;5115521;28;20038;-60
2022/07/26 09:26:27;;;;;;;11.20;10.13;;;29.20;1.00;;;;;;5104997;28;20053;-61
2022/07/26 09:29:10;;;;;;;10.95;9.80;;;29.30;1.00;;;;;;5114867;28;20050;-61
2022/07/26 09:31:37;;;;;;;11.32;9.90;;;29.30;1.00;;;;;;5101912;28;20024;-58
2022/07/26 09:34:04;;;;;;;9.73;8.82;;;29.50;1.00;;;;;;5113800;28;20081;-59
2022/07/26 09:36:30;;;;;;;11.00;9.85;;;29.60;1.00;;;;;;5112456;28;20016;-58
2022/07/26 09:38:59;;;;;;;9.88;8.95;;;29.60;1.00;;;;;;5114986;28;20492;-58
2022/07/26 09:41:26;;;;;;;11.82;9.90;;;29.70;1.00;;;;;;5112769;28;20047;-58
2022/07/26 09:43:54;;;;;;;12.25;11.18;;;29.90;1.00;;;;;;5105586;28;20023;-49
2022/07/26 09:46:22;;;;;;;10.02;9.13;;;29.90;1.00;;;;;;5114272;28;20528;-57
2022/07/26 09:48:47;;;;;;;12.60;10.35;;;29.90;1.00;;;;;;5114586;28;20052;-59
2022/07/26 09:51:13;;;;;;;12.90;11.63;;;30.10;1.00;;;;;;5113116;28;20421;-57
2022/07/26 09:53:44;;;;;;;13.82;10.95;;;30.10;1.00;;;;;;5114848;28;20027;-63
2022/07/26 09:56:11;;;;;;;10.43;9.45;;;30.00;1.00;;;;;;5101365;28;20431;-60
2022/07/26 09:58:37;;;;;;;11.55;10.35;;;30.20;1.00;;;;;;5113593;28;20389;-59
2022/07/26 10:01:07;;;;;;;11.52;10.43;;;30.20;1.00;;;;;;5111579;28;20020;-54
2022/07/26 10:03:34;;;;;;;11.43;10.10;;;30.20;1.00;;;;;;5114642;28;20032;-57
2022/07/26 10:06:00;;;;;;;12.90;10.13;;;30.40;1.00;;;;;;5113988;28;20056;-60
2022/07/26 10:08:26;;;;;;;11.60;10.40;;;30.70;1.00;;;;;;5112317;28;20034;-59
2022/07/26 10:10:59;;;;;;;12.38;11.20;;;30.50;1.00;;;;;;5113256;28;20373;-59
2022/07/26 10:13:26;;;;;;;12.00;10.90;;;30.50;1.00;;;;;;5109520;28;20050;-58
2022/07/26 10:15:52;;;;;;;13.05;11.75;;;30.70;1.00;;;;;;5114001;28;20030;-60
2022/07/26 10:18:36;;;;;;;13.00;11.73;;;30.60;1.00;;;;;;5106783;28;20028;-49
2022/07/26 10:21:26;;;;;;;13.25;11.88;;;30.60;1.00;;;;;;5104141;28;20172;-53
2022/07/26 10:23:59;;;;;;;11.65;10.65;;;31.00;1.00;;;;;;5114638;28;20063;-52
2022/07/26 10:26:31;;;;;;;;;;;31.40;1.00;;;;;;5107708;28;20012;-61
2022/07/26 10:29:15;;;;;;;12.30;11.05;;;31.80;1.00;;;;;;5111095;27;20014;-60
2022/07/26 10:31:45;;;;;;;12.32;11.15;;;31.60;1.00;;;;;;5107810;28;20035;-61
2022/07/26 10:34:27;;;;;;;11.27;10.18;;;31.70;1.00;;;;;;5112986;28;20076;-61
2022/07/26 10:37:02;;;;;;;11.43;9.82;;;31.80;1.00;;;;;;5107732;28;20028;-52
2022/07/26 10:39:27;;;;;;;11.05;9.93;;;31.80;1.00;;;;;;5112711;28;20462;-57
2022/07/26 10:42:02;;;;;;;11.07;9.93;;;31.90;1.00;;;;;;5108625;28;20115;-54
2022/07/26 10:44:32;;;;;;;11.90;10.60;;;31.70;1.00;;;;;;5106658;28;20030;-50
2022/07/26 10:47:00;;;;;;;11.40;10.23;;;31.80;1.00;;;;;;5109055;28;20055;-58
2022/07/26 10:49:41;;;;;;;10.23;9.23;;;31.70;1.00;;;;;;5113026;28;20093;-54
2022/07/26 10:52:18;;;;;;;13.43;9.40;;;31.60;1.00;;;;;;5111733;28;20035;-51
2022/07/26 10:54:58;;;;;;;10.75;9.48;;;32.10;1.00;;;;;;5109593;28;20039;-56
2022/07/26 10:57:25;;;;;;;10.25;9.15;;;32.10;1.00;;;;;;5106483;28;20031;-60
2022/07/26 10:59:50;;;;;;;11.63;9.27;;;32.00;1.00;;;;;;5106938;28;20039;-54
2022/07/26 11:02:20;;;;;;;9.93;9.00;;;32.00;1.00;;;;;;5108036;28;20085;-54
2022/07/26 11:04:46;;;;;;;9.95;8.10;;;32.10;1.00;;;;;;5111607;28;20031;-52
2022/07/26 11:07:12;;;;;;;9.85;8.90;;;32.20;1.00;;;;;;5111529;28;20035;-54
2022/07/26 11:09:38;;;;;;;12.40;10.07;;;32.20;1.00;;;;;;5111590;28;20399;-51
2022/07/26 11:12:23;;;;;;;10.00;8.98;;;32.30;1.00;;;;;;5083158;28;20020;-48
2022/07/26 11:14:49;;;;;;;9.90;8.52;;;32.50;1.00;;;;;;5092259;28;20111;-52
2022/07/26 11:17:24;;;;;;;9.43;8.45;;;32.60;1.00;;;;;;5097031;28;20020;-52
2022/07/26 11:19:50;;;;;;;9.20;8.40;;;32.50;1.00;;;;;;5101579;28;20505;-50
2022/07/26 11:22:16;;;;;;;8.77;8.05;;;32.20;1.00;;;;;;5110924;28;20024;-47
2022/07/26 11:24:41;;;;;;;8.73;7.85;;;32.60;1.00;;;;;;5108969;28;20039;-52
2022/07/26 11:27:07;;;;;;;8.70;8.00;;;32.80;1.00;;;;;;5094601;28;20074;-50
2022/07/26 11:29:34;;;;;;;10.02;9.13;;;32.90;1.00;;;;;;5107303;28;20503;-47
2022/07/26 11:32:00;;;;;;;9.30;8.50;;;33.40;1.00;;;;;;5108436;28;20457;-52
2022/07/26 11:34:29;;;;;;;9.23;8.10;;;34.00;1.00;;;;;;5112332;28;20454;-48
2022/07/26 11:36:57;;;;;;;9.27;8.48;;;33.40;1.00;;;;;;5104900;28;20106;-49
2022/07/26 11:39:29;;;;;;;10.75;8.70;;;33.50;1.00;;;;;;5098580;28;20024;-46
2022/07/26 11:42:12;;;;;;;9.32;8.52;;;33.60;1.00;;;;;;5099567;28;20048;-46
2022/07/26 11:44:42;;;;;;;8.35;7.65;;;33.90;1.00;;;;;;5112029;28;20012;-47
2022/07/26 11:47:21;;;;;;;8.50;7.88;;;34.20;1.00;;;;;;5108215;28;20028;-47
2022/07/26 11:49:48;;;;;;;8.13;7.32;;;34.70;1.00;;;;;;5105121;28;20039;-48
2022/07/26 11:52:14;;;;;;;8.50;7.65;;;35.50;1.00;;;;;;5108563;28;20092;-48
2022/07/26 11:54:46;;;;;;;7.85;7.18;;;36.80;1.00;;;;;;5110906;28;20069;-48
2022/07/26 11:57:11;;;;;;;8.30;7.55;;;37.40;1.00;;;;;;5092894;28;20418;-50
2022/07/26 11:59:37;;;;;;;9.38;8.45;;;38.20;1.00;;;;;;5106125;28;20030;-52
2022/07/26 12:02:06;;;;;;;8.65;7.85;;;39.90;1.00;;;;;;5109144;28;20358;-51
2022/07/26 12:04:37;;;;;;;8.88;8.20;;;39.70;1.00;;;;;;5110746;28;20027;-51
2022/07/26 12:07:12;;;;;;;8.07;7.47;;;39.60;1.00;;;;;;5106040;28;20106;-51
2022/07/26 12:09:39;;;;;;;9.23;7.82;;;39.70;1.00;;;;;;5103437;28;20407;-53
2022/07/26 12:12:18;;;;;;;8.65;8.05;;;39.90;1.00;;;;;;5105745;28;20385;-52
2022/07/26 12:14:58;;;;;;;7.93;7.32;;;39.90;1.00;;;;;;5104712;28;20126;-53
2022/07/26 12:17:24;;;;;;;9.27;8.38;;;39.80;1.00;;;;;;5112759;27;20027;-57
2022/07/26 12:19:50;;;;;;;9.25;8.52;;;40.30;1.00;;;;;;5111740;28;20027;-57
2022/07/26 12:22:20;;;;;;;9.52;8.82;;;41.90;1.00;;;;;;5103077;28;20091;-55
2022/07/26 12:24:56;;;;;;;9.77;8.80;;;43.00;1.00;;;;;;5109961;28;20430;-57
2022/07/26 12:27:22;;;;;;;9.32;8.63;;;44.20;1.00;;;;;;5108439;28;20027;-59
2022/07/26 12:29:50;;;;;;;10.43;9.63;;;44.60;1.00;;;;;;5107040;28;20059;-53
2022/07/26 12:32:21;;;;;;;10.02;9.20;;;45.90;1.00;;;;;;5108330;28;20019;-55
2022/07/26 12:35:05;;;;;;;10.73;9.70;;;45.00;1.00;;;;;;5106212;28;20054;-52
2022/07/26 12:37:33;;;;;;;10.95;10.10;;;44.30;1.00;;;;;;5106429;28;20071;-57
2022/07/26 12:40:00;;;;;;;11.23;10.38;;;43.70;1.00;;;;;;5109739;28;20115;-58
2022/07/26 12:42:28;;;;;;;10.90;9.90;;;42.30;1.00;;;;;;5108459;28;20051;-58
2022/07/26 12:44:55;;;;;;;10.13;9.55;;;41.20;1.00;;;;;;5092194;28;20020;-60
2022/07/26 12:47:21;;;;;;;9.68;8.98;;;40.30;1.00;;;;;;5110833;28;20044;-59
2022/07/26 12:49:47;;;;;;;10.77;10.07;;;39.30;1.00;;;;;;5104880;28;20111;-60
2022/07/26 12:52:17;;;;;;;11.20;10.07;;;39.20;1.00;;;;;;5091529;28;20172;-54
2022/07/26 12:54:45;;;;;;;10.23;9.32;;;38.90;1.00;;;;;;5108764;28;20055;-58
2022/07/26 12:57:11;;;;;;;10.10;9.40;;;38.50;1.00;;;;;;5108151;28;20038;-59